sensor_id;sensor_type;location;lat;lon;timestamp;temperature;humidity
13806;DHT22;6974;53.606;9.872;2023-05-29T00:00:08;14.90;99.90
13806;DHT22;6974;53.606;9.872;2023-05-29T00:02:37;14.90;99.90
13806;DHT22;6974;53.606;9.872;2023-05-29T00:05:04;14.90;99.90
13806;DHT22;6974;53.606;9.872;2023-05-29T00:07:32;14.80;99.90
13806;DHT22;6974;53.606;9.872;2023-05-29T00:10:00;14.70;99.90
13806;DHT22;6974;53.606;9.872;2023-05-29T00:12:27;14.70;99.90
13806;DHT22;6974;53.606;9.872;2023-05-29T00:14:54;14.50;99.90
13806;DHT22;6974;53.606;9.872;2023-05-29T00:17:21;14.40;99.90
13806;DHT22;6974;53.606;9.872;2023-05-29T00:19:47;14.30;99.90
13806;DHT22;6974;53.606;9.872;2023-05-29T00:22:14;14.30;99.90
13806;DHT22;6974;53.606;9.872;2023-05-29T00:24:41;14.20;99.90
13806;DHT22;6974;53.606;9.872;2023-05-29T00:27:10;14.30;99.90
13806;DHT22;6974;53.606;9.872;2023-05-29T00:29:37;14.30;99.90
13806;DHT22;6974;53.606;9.872;2023-05-29T00:32:04;14.30;99.90
13806;DHT22;6974;53.606;9.872;2023-05-29T00:34:31;14.30;99.90
13806;DHT22;6974;53.606;9.872;2023-05-29T00:36:58;14.40;99.90
13806;DHT22;6974;53.606;9.872;2023-05-29T00:39:25;14.40;99.90
13806;DHT22;6974;53.606;9.872;2023-05-29T00:41:52;14.40;99.90
13806;DHT22;6974;53.606;9.872;2023-05-29T00:44:21;14.30;99.90
13806;DHT22;6974;53.606;9.872;2023-05-29T00:46:49;14.30;99.90
13806;DHT22;6974;53.606;9.872;2023-05-29T00:49:19;14.20;99.90
13806;DHT22;6974;53.606;9.872;2023-05-29T00:51:46;14.20;99.90
13806;DHT22;6974;53.606;9.872;2023-05-29T00:54:20;14.20;99.90
13806;DHT22;6974;53.606;9.872;2023-05-29T00:56:48;14.10;99.90
13806;DHT22;6974;53.606;9.872;2023-05-29T00:59:15;14.00;99.90
13806;DHT22;6974;53.606;9.872;2023-05-29T01:01:45;13.90;99.90
13806;DHT22;6974;53.606;9.872;2023-05-29T01:04:13;13.90;99.90
13806;DHT22;6974;53.606;9.872;2023-05-29T01:06:42;13.80;99.90
13806;DHT22;6974;53.606;9.872;2023-05-29T01:09:09;13.80;99.90
13806;DHT22;6974;53.606;9.872;2023-05-29T01:11:41;13.70;99.90
13806;DHT22;6974;53.606;9.872;2023-05-29T01:14:15;13.70;99.90
13806;DHT22;6974;53.606;9.872;2023-05-29T01:16:51;13.70;99.90
13806;DHT22;6974;53.606;9.872;2023-05-29T01:19:32;13.70;99.90
13806;DHT22;6974;53.606;9.872;2023-05-29T01:22:12;13.80;99.90
13806;DHT22;6974;53.606;9.872;2023-05-29T01:24:49;13.70;99.90
13806;DHT22;6974;53.606;9.872;2023-05-29T01:27:19;13.70;99.90
13806;DHT22;6974;53.606;9.872;2023-05-29T01:29:49;13.60;99.90
13806;DHT22;6974;53.606;9.872;2023-05-29T01:32:18;13.60;99.90
13806;DHT22;6974;53.606;9.872;2023-05-29T01:34:45;13.50;99.90
13806;DHT22;6974;53.606;9.872;2023-05-29T01:37:12;13.50;99.90
13806;DHT22;6974;53.606;9.872;2023-05-29T01:39:39;13.50;99.90
13806;DHT22;6974;53.606;9.872;2023-05-29T01:42:06;13.40;99.90
13806;DHT22;6974;53.606;9.872;2023-05-29T01:44:35;13.30;99.90
13806;DHT22;6974;53.606;9.872;2023-05-29T01:47:03;13.30;99.90
13806;DHT22;6974;53.606;9.872;2023-05-29T01:49:31;13.30;99.90
13806;DHT22;6974;53.606;9.872;2023-05-29T01:51:58;13.30;99.90
13806;DHT22;6974;53.606;9.872;2023-05-29T01:54:25;13.30;99.90
13806;DHT22;6974;53.606;9.872;2023-05-29T01:56:52;13.30;99.90
13806;DHT22;6974;53.606;9.872;2023-05-29T01:59:19;13.20;99.90
13806;DHT22;6974;53.606;9.872;2023-05-29T02:01:49;13.20;99.90
13806;DHT22;6974;53.606;9.872;2023-05-29T02:04:15;13.20;99.90
13806;DHT22;6974;53.606;9.872;2023-05-29T02:06:42;13.20;99.90
13806;DHT22;6974;53.606;9.872;2023-05-29T02:09:09;13.10;99.90
13806;DHT22;6974;53.606;9.872;2023-05-29T02:11:36;13.10;99.90
13806;DHT22;6974;53.606;9.872;2023-05-29T02:14:03;13.10;99.90
13806;DHT22;6974;53.606;9.872;2023-05-29T02:16:29;13.00;99.90
13806;DHT22;6974;53.606;9.872;2023-05-29T02:19:00;12.90;99.90
13806;DHT22;6974;53.606;9.872;2023-05-29T02:21:27;12.90;99.90
13806;DHT22;6974;53.606;9.872;2023-05-29T02:23:54;12.90;99.90
13806;DHT22;6974;53.606;9.872;2023-05-29T02:26:21;12.80;99.90
13806;DHT22;6974;53.606;9.872;2023-05-29T02:28:48;12.80;99.90
13806;DHT22;6974;53.606;9.872;2023-05-29T02:31:15;12.80;99.90
13806;DHT22;6974;53.606;9.872;2023-05-29T02:33:42;12.80;99.90
13806;DHT22;6974;53.606;9.872;2023-05-29T02:36:10;12.70;99.90
13806;DHT22;6974;53.606;9.872;2023-05-29T02:38:37;12.70;99.90
13806;DHT22;6974;53.606;9.872;2023-05-29T02:41:04;12.70;99.90
13806;DHT22;6974;53.606;9.872;2023-05-29T02:43:31;12.60;99.90
13806;DHT22;6974;53.606;9.872;2023-05-29T02:45:58;12.60;99.90
13806;DHT22;6974;53.606;9.872;2023-05-29T02:48:25;12.70;99.90
13806;DHT22;6974;53.606;9.872;2023-05-29T02:50:52;12.60;99.90
13806;DHT22;6974;53.606;9.872;2023-05-29T02:53:20;12.60;99.90
13806;DHT22;6974;53.606;9.872;2023-05-29T02:55:47;12.60;99.90
13806;DHT22;6974;53.606;9.872;2023-05-29T02:58:14;12.50;99.90
13806;DHT22;6974;53.606;9.872;2023-05-29T03:00:42;12.60;99.90
13806;DHT22;6974;53.606;9.872;2023-05-29T03:03:09;12.50;99.90
13806;DHT22;6974;53.606;9.872;2023-05-29T03:05:36;12.40;99.90
13806;DHT22;6974;53.606;9.872;2023-05-29T03:08:03;12.30;99.90
13806;DHT22;6974;53.606;9.872;2023-05-29T03:10:31;12.40;99.90
13806;DHT22;6974;53.606;9.872;2023-05-29T03:12:57;12.20;99.90
13806;DHT22;6974;53.606;9.872;2023-05-29T03:15:24;12.30;99.90
13806;DHT22;6974;53.606;9.872;2023-05-29T03:17:51;12.30;99.90
13806;DHT22;6974;53.606;9.872;2023-05-29T03:20:18;12.20;99.90
13806;DHT22;6974;53.606;9.872;2023-05-29T03:22:45;12.20;99.90
13806;DHT22;6974;53.606;9.872;2023-05-29T03:25:12;12.20;99.90
13806;DHT22;6974;53.606;9.872;2023-05-29T03:27:40;12.20;99.90
13806;DHT22;6974;53.606;9.872;2023-05-29T03:30:08;12.30;99.90
13806;DHT22;6974;53.606;9.872;2023-05-29T03:32:36;12.30;99.90
13806;DHT22;6974;53.606;9.872;2023-05-29T03:35:03;12.30;99.90
13806;DHT22;6974;53.606;9.872;2023-05-29T03:37:30;12.30;99.90
13806;DHT22;6974;53.606;9.872;2023-05-29T03:39:57;12.20;99.90
13806;DHT22;6974;53.606;9.872;2023-05-29T03:42:23;12.30;99.90
13806;DHT22;6974;53.606;9.872;2023-05-29T03:44:52;12.30;99.90
13806;DHT22;6974;53.606;9.872;2023-05-29T03:47:19;12.10;99.90
13806;DHT22;6974;53.606;9.872;2023-05-29T03:49:46;12.10;99.90
13806;DHT22;6974;53.606;9.872;2023-05-29T03:52:12;12.10;99.90
13806;DHT22;6974;53.606;9.872;2023-05-29T03:54:39;12.00;99.90
13806;DHT22;6974;53.606;9.872;2023-05-29T03:57:06;12.10;99.90
13806;DHT22;6974;53.606;9.872;2023-05-29T03:59:34;12.10;99.90
13806;DHT22;6974;53.606;9.872;2023-05-29T04:02:02;12.00;99.90
13806;DHT22;6974;53.606;9.872;2023-05-29T04:04:29;12.10;99.90
13806;DHT22;6974;53.606;9.872;2023-05-29T04:06:56;12.20;99.90
13806;DHT22;6974;53.606;9.872;2023-05-29T04:09:23;12.20;99.90
13806;DHT22;6974;53.606;9.872;2023-05-29T04:11:50;12.20;99.90
13806;DHT22;6974;53.606;9.872;2023-05-29T04:14:17;12.10;99.90
13806;DHT22;6974;53.606;9.872;2023-05-29T04:16:44;12.10;99.90
13806;DHT22;6974;53.606;9.872;2023-05-29T04:19:12;12.10;99.90
13806;DHT22;6974;53.606;9.872;2023-05-29T04:21:39;12.00;99.90
13806;DHT22;6974;53.606;9.872;2023-05-29T04:24:06;12.10;99.90
13806;DHT22;6974;53.606;9.872;2023-05-29T04:26:33;12.20;99.90
13806;DHT22;6974;53.606;9.872;2023-05-29T04:29:00;12.20;99.90
13806;DHT22;6974;53.606;9.872;2023-05-29T04:31:27;12.30;99.90
13806;DHT22;6974;53.606;9.872;2023-05-29T04:33:54;12.30;99.90
13806;DHT22;6974;53.606;9.872;2023-05-29T04:36:24;12.30;99.90
13806;DHT22;6974;53.606;9.872;2023-05-29T04:38:52;12.30;99.90
13806;DHT22;6974;53.606;9.872;2023-05-29T04:41:19;12.30;99.90
13806;DHT22;6974;53.606;9.872;2023-05-29T04:43:49;12.20;99.90
13806;DHT22;6974;53.606;9.872;2023-05-29T04:46:16;12.20;99.90
13806;DHT22;6974;53.606;9.872;2023-05-29T04:48:43;12.10;99.90
13806;DHT22;6974;53.606;9.872;2023-05-29T04:51:10;12.10;99.90
13806;DHT22;6974;53.606;9.872;2023-05-29T04:53:39;12.20;99.90
13806;DHT22;6974;53.606;9.872;2023-05-29T04:56:06;12.20;99.90
13806;DHT22;6974;53.606;9.872;2023-05-29T04:58:33;12.20;99.90
13806;DHT22;6974;53.606;9.872;2023-05-29T05:01:00;12.20;99.90
13806;DHT22;6974;53.606;9.872;2023-05-29T05:03:28;12.20;99.90
13806;DHT22;6974;53.606;9.872;2023-05-29T05:05:56;12.00;99.90
13806;DHT22;6974;53.606;9.872;2023-05-29T05:08:23;12.00;99.90
13806;DHT22;6974;53.606;9.872;2023-05-29T05:10:51;12.10;99.90
13806;DHT22;6974;53.606;9.872;2023-05-29T05:13:18;12.20;99.90
13806;DHT22;6974;53.606;9.872;2023-05-29T05:15:45;12.20;99.90
13806;DHT22;6974;53.606;9.872;2023-05-29T05:18:12;12.20;99.90
13806;DHT22;6974;53.606;9.872;2023-05-29T05:20:39;12.20;99.90
13806;DHT22;6974;53.606;9.872;2023-05-29T05:23:06;12.20;99.90
13806;DHT22;6974;53.606;9.872;2023-05-29T05:25:33;12.30;99.90
13806;DHT22;6974;53.606;9.872;2023-05-29T05:28:02;12.20;99.90
13806;DHT22;6974;53.606;9.872;2023-05-29T05:30:29;12.10;99.90
13806;DHT22;6974;53.606;9.872;2023-05-29T05:32:56;12.20;99.90
13806;DHT22;6974;53.606;9.872;2023-05-29T05:35:23;12.10;99.90
13806;DHT22;6974;53.606;9.872;2023-05-29T05:37:50;12.10;99.90
13806;DHT22;6974;53.606;9.872;2023-05-29T05:40:18;12.20;99.90
13806;DHT22;6974;53.606;9.872;2023-05-29T05:42:45;12.20;99.90
13806;DHT22;6974;53.606;9.872;2023-05-29T05:47:48;12.20;99.90
13806;DHT22;6974;53.606;9.872;2023-05-29T05:50:15;12.20;99.90
13806;DHT22;6974;53.606;9.872;2023-05-29T05:52:42;12.30;99.90
13806;DHT22;6974;53.606;9.872;2023-05-29T05:55:10;12.40;99.90
13806;DHT22;6974;53.606;9.872;2023-05-29T05:57:38;12.40;99.90
13806;DHT22;6974;53.606;9.872;2023-05-29T06:00:07;12.40;99.90
13806;DHT22;6974;53.606;9.872;2023-05-29T06:02:37;12.50;99.90
13806;DHT22;6974;53.606;9.872;2023-05-29T06:05:09;12.40;99.90
13806;DHT22;6974;53.606;9.872;2023-05-29T06:07:37;12.50;99.90
13806;DHT22;6974;53.606;9.872;2023-05-29T06:10:06;12.40;99.90
13806;DHT22;6974;53.606;9.872;2023-05-29T06:12:34;12.50;99.90
13806;DHT22;6974;53.606;9.872;2023-05-29T06:15:01;12.70;99.90
13806;DHT22;6974;53.606;9.872;2023-05-29T06:17:29;12.80;99.90
13806;DHT22;6974;53.606;9.872;2023-05-29T06:19:59;13.00;99.90
13806;DHT22;6974;53.606;9.872;2023-05-29T06:22:28;13.00;99.90
13806;DHT22;6974;53.606;9.872;2023-05-29T06:24:55;13.10;99.90
13806;DHT22;6974;53.606;9.872;2023-05-29T06:27:22;13.00;99.90
13806;DHT22;6974;53.606;9.872;2023-05-29T06:29:51;13.00;99.90
13806;DHT22;6974;53.606;9.872;2023-05-29T06:32:18;13.00;99.90
13806;DHT22;6974;53.606;9.872;2023-05-29T06:34:46;13.00;99.90
13806;DHT22;6974;53.606;9.872;2023-05-29T06:37:13;12.90;99.90
13806;DHT22;6974;53.606;9.872;2023-05-29T06:39:45;12.90;99.90
13806;DHT22;6974;53.606;9.872;2023-05-29T06:42:14;12.90;99.90
13806;DHT22;6974;53.606;9.872;2023-05-29T06:44:41;13.00;99.90
13806;DHT22;6974;53.606;9.872;2023-05-29T06:47:08;13.10;99.90
13806;DHT22;6974;53.606;9.872;2023-05-29T06:49:35;13.20;99.90
13806;DHT22;6974;53.606;9.872;2023-05-29T06:52:03;13.20;99.90
13806;DHT22;6974;53.606;9.872;2023-05-29T06:54:30;13.20;99.90
13806;DHT22;6974;53.606;9.872;2023-05-29T06:56:59;13.20;99.90
13806;DHT22;6974;53.606;9.872;2023-05-29T06:59:26;13.20;99.90
13806;DHT22;6974;53.606;9.872;2023-05-29T07:01:53;13.20;99.90
13806;DHT22;6974;53.606;9.872;2023-05-29T07:04:21;13.30;99.90
13806;DHT22;6974;53.606;9.872;2023-05-29T07:06:48;13.40;99.90
13806;DHT22;6974;53.606;9.872;2023-05-29T07:09:15;13.40;99.90
13806;DHT22;6974;53.606;9.872;2023-05-29T07:11:44;13.40;99.90
13806;DHT22;6974;53.606;9.872;2023-05-29T07:14:13;13.40;99.90
13806;DHT22;6974;53.606;9.872;2023-05-29T07:16:40;13.40;99.90
13806;DHT22;6974;53.606;9.872;2023-05-29T07:19:07;13.40;99.90
13806;DHT22;6974;53.606;9.872;2023-05-29T07:21:34;13.40;99.90
13806;DHT22;6974;53.606;9.872;2023-05-29T07:24:01;13.50;99.90
13806;DHT22;6974;53.606;9.872;2023-05-29T07:26:29;13.50;99.90
13806;DHT22;6974;53.606;9.872;2023-05-29T07:28:56;13.70;99.90
13806;DHT22;6974;53.606;9.872;2023-05-29T07:31:25;13.70;99.90
13806;DHT22;6974;53.606;9.872;2023-05-29T07:33:53;13.80;99.90
13806;DHT22;6974;53.606;9.872;2023-05-29T07:36:23;13.80;99.90
13806;DHT22;6974;53.606;9.872;2023-05-29T07:38:50;13.90;99.90
13806;DHT22;6974;53.606;9.872;2023-05-29T07:41:19;13.80;99.90
13806;DHT22;6974;53.606;9.872;2023-05-29T07:43:46;13.80;99.90
13806;DHT22;6974;53.606;9.872;2023-05-29T07:46:17;13.80;99.90
13806;DHT22;6974;53.606;9.872;2023-05-29T07:48:46;13.90;99.90
13806;DHT22;6974;53.606;9.872;2023-05-29T07:51:16;13.90;99.90
13806;DHT22;6974;53.606;9.872;2023-05-29T07:53:44;14.10;99.90
13806;DHT22;6974;53.606;9.872;2023-05-29T07:56:12;14.20;99.90
13806;DHT22;6974;53.606;9.872;2023-05-29T07:58:40;14.10;99.90
13806;DHT22;6974;53.606;9.872;2023-05-29T08:01:08;14.10;99.90
13806;DHT22;6974;53.606;9.872;2023-05-29T08:03:35;14.10;99.90
13806;DHT22;6974;53.606;9.872;2023-05-29T08:06:04;14.20;99.90
13806;DHT22;6974;53.606;9.872;2023-05-29T08:08:32;14.30;99.90
13806;DHT22;6974;53.606;9.872;2023-05-29T08:11:02;14.50;99.90
13806;DHT22;6974;53.606;9.872;2023-05-29T08:13:29;14.60;99.90
13806;DHT22;6974;53.606;9.872;2023-05-29T08:15:57;14.70;99.90
13806;DHT22;6974;53.606;9.872;2023-05-29T08:18:26;14.70;99.90
13806;DHT22;6974;53.606;9.872;2023-05-29T08:20:53;14.80;99.90
13806;DHT22;6974;53.606;9.872;2023-05-29T08:23:22;15.00;99.90
13806;DHT22;6974;53.606;9.872;2023-05-29T08:25:50;15.10;99.90
13806;DHT22;6974;53.606;9.872;2023-05-29T08:28:17;15.20;99.90
13806;DHT22;6974;53.606;9.872;2023-05-29T08:30:45;15.30;99.90
13806;DHT22;6974;53.606;9.872;2023-05-29T08:33:12;15.40;99.90
13806;DHT22;6974;53.606;9.872;2023-05-29T08:35:39;15.50;99.90
13806;DHT22;6974;53.606;9.872;2023-05-29T08:38:06;15.60;99.90
13806;DHT22;6974;53.606;9.872;2023-05-29T08:40:35;15.60;99.90
13806;DHT22;6974;53.606;9.872;2023-05-29T08:43:06;15.60;99.90
13806;DHT22;6974;53.606;9.872;2023-05-29T08:45:38;15.80;99.90
13806;DHT22;6974;53.606;9.872;2023-05-29T08:48:09;15.90;99.90
13806;DHT22;6974;53.606;9.872;2023-05-29T08:50:39;16.00;99.90
13806;DHT22;6974;53.606;9.872;2023-05-29T08:53:10;16.10;99.90
13806;DHT22;6974;53.606;9.872;2023-05-29T08:55:39;16.20;99.90
13806;DHT22;6974;53.606;9.872;2023-05-29T08:58:06;16.20;99.90
13806;DHT22;6974;53.606;9.872;2023-05-29T09:00:35;16.20;99.90
13806;DHT22;6974;53.606;9.872;2023-05-29T09:03:02;16.20;99.90
13806;DHT22;6974;53.606;9.872;2023-05-29T09:05:31;16.30;99.90
13806;DHT22;6974;53.606;9.872;2023-05-29T09:07:59;16.30;99.90
13806;DHT22;6974;53.606;9.872;2023-05-29T09:10:26;16.30;99.90
13806;DHT22;6974;53.606;9.872;2023-05-29T09:12:54;16.40;99.90
13806;DHT22;6974;53.606;9.872;2023-05-29T09:15:23;16.50;99.90
13806;DHT22;6974;53.606;9.872;2023-05-29T09:17:51;16.60;99.90
13806;DHT22;6974;53.606;9.872;2023-05-29T09:20:19;16.70;99.90
13806;DHT22;6974;53.606;9.872;2023-05-29T09:22:59;16.80;99.90
13806;DHT22;6974;53.606;9.872;2023-05-29T09:25:29;17.00;99.90
13806;DHT22;6974;53.606;9.872;2023-05-29T09:28:01;17.10;99.90
13806;DHT22;6974;53.606;9.872;2023-05-29T09:30:34;17.20;99.90
13806;DHT22;6974;53.606;9.872;2023-05-29T09:33:03;17.30;99.90
13806;DHT22;6974;53.606;9.872;2023-05-29T09:35:35;17.60;99.90
13806;DHT22;6974;53.606;9.872;2023-05-29T09:38:03;17.60;99.90
13806;DHT22;6974;53.606;9.872;2023-05-29T09:40:31;17.70;99.90
13806;DHT22;6974;53.606;9.872;2023-05-29T09:43:04;17.90;99.90
13806;DHT22;6974;53.606;9.872;2023-05-29T09:45:36;18.10;99.90
13806;DHT22;6974;53.606;9.872;2023-05-29T09:48:04;18.00;99.90
13806;DHT22;6974;53.606;9.872;2023-05-29T09:50:32;18.10;99.90
13806;DHT22;6974;53.606;9.872;2023-05-29T09:53:00;18.20;99.90
13806;DHT22;6974;53.606;9.872;2023-05-29T09:55:27;18.10;99.90
13806;DHT22;6974;53.606;9.872;2023-05-29T09:57:55;18.20;99.90
13806;DHT22;6974;53.606;9.872;2023-05-29T10:00:24;18.40;99.90
13806;DHT22;6974;53.606;9.872;2023-05-29T10:02:51;18.60;99.90
13806;DHT22;6974;53.606;9.872;2023-05-29T10:05:18;18.60;99.90
13806;DHT22;6974;53.606;9.872;2023-05-29T10:07:47;18.70;99.90
13806;DHT22;6974;53.606;9.872;2023-05-29T10:10:19;18.80;99.90
13806;DHT22;6974;53.606;9.872;2023-05-29T10:12:49;19.10;99.90
13806;DHT22;6974;53.606;9.872;2023-05-29T10:15:16;19.10;99.90
13806;DHT22;6974;53.606;9.872;2023-05-29T10:17:50;19.10;99.90
13806;DHT22;6974;53.606;9.872;2023-05-29T10:20:21;19.20;99.90
13806;DHT22;6974;53.606;9.872;2023-05-29T10:22:51;19.40;99.90
13806;DHT22;6974;53.606;9.872;2023-05-29T10:25:20;19.20;99.90
13806;DHT22;6974;53.606;9.872;2023-05-29T10:27:48;19.20;99.90
13806;DHT22;6974;53.606;9.872;2023-05-29T10:30:25;19.10;99.90
13806;DHT22;6974;53.606;9.872;2023-05-29T10:33:15;19.20;99.90
13806;DHT22;6974;53.606;9.872;2023-05-29T10:35:48;19.30;99.90
13806;DHT22;6974;53.606;9.872;2023-05-29T10:38:18;19.40;99.90
13806;DHT22;6974;53.606;9.872;2023-05-29T10:40:47;19.40;99.90
13806;DHT22;6974;53.606;9.872;2023-05-29T10:43:32;19.50;99.90
13806;DHT22;6974;53.606;9.872;2023-05-29T10:46:00;19.60;99.90
13806;DHT22;6974;53.606;9.872;2023-05-29T10:48:40;19.70;99.90
13806;DHT22;6974;53.606;9.872;2023-05-29T10:51:08;20.00;99.90
13806;DHT22;6974;53.606;9.872;2023-05-29T10:53:35;20.00;99.90
13806;DHT22;6974;53.606;9.872;2023-05-29T10:56:09;19.90;99.90
13806;DHT22;6974;53.606;9.872;2023-05-29T10:58:41;20.00;99.90
13806;DHT22;6974;53.606;9.872;2023-05-29T11:01:08;20.10;99.90
13806;DHT22;6974;53.606;9.872;2023-05-29T11:03:37;20.30;99.90
13806;DHT22;6974;53.606;9.872;2023-05-29T11:06:07;20.40;99.90
13806;DHT22;6974;53.606;9.872;2023-05-29T11:08:44;20.50;99.90
13806;DHT22;6974;53.606;9.872;2023-05-29T11:11:12;20.60;99.90
13806;DHT22;6974;53.606;9.872;2023-05-29T11:13:40;20.80;99.90
13806;DHT22;6974;53.606;9.872;2023-05-29T11:16:11;20.90;99.90
13806;DHT22;6974;53.606;9.872;2023-05-29T11:18:42;21.00;99.90
13806;DHT22;6974;53.606;9.872;2023-05-29T11:21:23;20.90;99.90
13806;DHT22;6974;53.606;9.872;2023-05-29T11:23:52;20.90;99.90
13806;DHT22;6974;53.606;9.872;2023-05-29T11:26:22;21.00;99.90
13806;DHT22;6974;53.606;9.872;2023-05-29T11:28:50;21.10;99.90
13806;DHT22;6974;53.606;9.872;2023-05-29T11:31:18;21.20;99.90
13806;DHT22;6974;53.606;9.872;2023-05-29T11:33:50;21.30;99.90
13806;DHT22;6974;53.606;9.872;2023-05-29T11:36:18;21.50;99.90
13806;DHT22;6974;53.606;9.872;2023-05-29T11:38:46;21.40;99.90
13806;DHT22;6974;53.606;9.872;2023-05-29T11:41:13;21.40;99.90
13806;DHT22;6974;53.606;9.872;2023-05-29T11:43:40;21.50;99.90
13806;DHT22;6974;53.606;9.872;2023-05-29T11:46:17;21.60;99.90
13806;DHT22;6974;53.606;9.872;2023-05-29T11:48:45;21.70;99.90
13806;DHT22;6974;53.606;9.872;2023-05-29T11:51:14;21.90;99.90
13806;DHT22;6974;53.606;9.872;2023-05-29T11:53:41;22.00;99.90
13806;DHT22;6974;53.606;9.872;2023-05-29T11:56:09;21.90;99.90
13806;DHT22;6974;53.606;9.872;2023-05-29T11:58:37;21.70;99.90
13806;DHT22;6974;53.606;9.872;2023-05-29T12:01:04;21.80;99.90
13806;DHT22;6974;53.606;9.872;2023-05-29T12:03:37;21.90;99.90
13806;DHT22;6974;53.606;9.872;2023-05-29T12:06:04;21.80;99.90
13806;DHT22;6974;53.606;9.872;2023-05-29T12:08:33;21.80;99.90
13806;DHT22;6974;53.606;9.872;2023-05-29T12:11:00;21.80;99.90
13806;DHT22;6974;53.606;9.872;2023-05-29T12:13:27;22.00;99.90
13806;DHT22;6974;53.606;9.872;2023-05-29T12:15:56;22.10;99.90
13806;DHT22;6974;53.606;9.872;2023-05-29T12:18:24;22.20;99.90
13806;DHT22;6974;53.606;9.872;2023-05-29T12:20:56;22.10;99.90
13806;DHT22;6974;53.606;9.872;2023-05-29T12:23:23;22.10;99.90
13806;DHT22;6974;53.606;9.872;2023-05-29T12:25:52;22.20;99.90
13806;DHT22;6974;53.606;9.872;2023-05-29T12:28:20;22.20;99.90
13806;DHT22;6974;53.606;9.872;2023-05-29T12:30:48;22.30;99.90
13806;DHT22;6974;53.606;9.872;2023-05-29T12:33:28;22.30;99.90
13806;DHT22;6974;53.606;9.872;2023-05-29T12:36:01;22.40;99.90
13806;DHT22;6974;53.606;9.872;2023-05-29T12:38:28;22.50;99.90
13806;DHT22;6974;53.606;9.872;2023-05-29T12:40:57;22.60;99.90
13806;DHT22;6974;53.606;9.872;2023-05-29T12:43:24;22.60;99.50
13806;DHT22;6974;53.606;9.872;2023-05-29T12:45:54;22.70;99.30
13806;DHT22;6974;53.606;9.872;2023-05-29T12:48:26;22.60;99.30
13806;DHT22;6974;53.606;9.872;2023-05-29T12:50:53;22.80;99.70
13806;DHT22;6974;53.606;9.872;2023-05-29T12:53:20;22.80;99.10
13806;DHT22;6974;53.606;9.872;2023-05-29T12:55:47;22.90;99.50
13806;DHT22;6974;53.606;9.872;2023-05-29T12:58:16;22.70;99.90
13806;DHT22;6974;53.606;9.872;2023-05-29T13:00:44;22.70;99.90
13806;DHT22;6974;53.606;9.872;2023-05-29T13:03:11;22.60;99.90
13806;DHT22;6974;53.606;9.872;2023-05-29T13:05:38;22.70;98.30
13806;DHT22;6974;53.606;9.872;2023-05-29T13:08:06;22.80;99.80
13806;DHT22;6974;53.606;9.872;2023-05-29T13:10:33;23.00;98.80
13806;DHT22;6974;53.606;9.872;2023-05-29T13:13:01;23.10;99.90
13806;DHT22;6974;53.606;9.872;2023-05-29T13:15:29;23.20;99.90
13806;DHT22;6974;53.606;9.872;2023-05-29T13:17:58;23.20;99.60
13806;DHT22;6974;53.606;9.872;2023-05-29T13:20:25;23.30;99.90
13806;DHT22;6974;53.606;9.872;2023-05-29T13:22:51;23.30;98.70
13806;DHT22;6974;53.606;9.872;2023-05-29T13:25:19;23.20;99.80
13806;DHT22;6974;53.606;9.872;2023-05-29T13:27:47;23.20;99.40
13806;DHT22;6974;53.606;9.872;2023-05-29T13:30:15;23.30;99.50
13806;DHT22;6974;53.606;9.872;2023-05-29T13:32:43;23.60;98.80
13806;DHT22;6974;53.606;9.872;2023-05-29T13:35:10;23.60;99.90
13806;DHT22;6974;53.606;9.872;2023-05-29T13:37:38;23.50;96.30
13806;DHT22;6974;53.606;9.872;2023-05-29T13:40:06;23.40;95.30
13806;DHT22;6974;53.606;9.872;2023-05-29T13:42:34;23.20;96.40
13806;DHT22;6974;53.606;9.872;2023-05-29T13:45:04;23.30;97.40
13806;DHT22;6974;53.606;9.872;2023-05-29T13:47:31;23.30;98.40
13806;DHT22;6974;53.606;9.872;2023-05-29T13:50:00;23.30;97.80
13806;DHT22;6974;53.606;9.872;2023-05-29T13:52:26;23.40;99.70
13806;DHT22;6974;53.606;9.872;2023-05-29T13:54:53;23.50;99.90
13806;DHT22;6974;53.606;9.872;2023-05-29T13:57:20;23.50;99.90
13806;DHT22;6974;53.606;9.872;2023-05-29T13:59:47;23.70;99.10
13806;DHT22;6974;53.606;9.872;2023-05-29T14:02:14;23.70;99.30
13806;DHT22;6974;53.606;9.872;2023-05-29T14:04:41;23.80;98.90
13806;DHT22;6974;53.606;9.872;2023-05-29T14:07:10;23.70;99.90
13806;DHT22;6974;53.606;9.872;2023-05-29T14:09:37;23.80;99.90
13806;DHT22;6974;53.606;9.872;2023-05-29T14:12:04;23.70;99.00
13806;DHT22;6974;53.606;9.872;2023-05-29T14:14:33;23.40;99.60
13806;DHT22;6974;53.606;9.872;2023-05-29T14:17:00;23.50;99.90
13806;DHT22;6974;53.606;9.872;2023-05-29T14:19:28;23.30;99.70
13806;DHT22;6974;53.606;9.872;2023-05-29T14:21:54;23.40;99.90
13806;DHT22;6974;53.606;9.872;2023-05-29T14:24:23;23.20;99.90
13806;DHT22;6974;53.606;9.872;2023-05-29T14:26:50;23.30;99.90
13806;DHT22;6974;53.606;9.872;2023-05-29T14:29:17;23.40;99.90
13806;DHT22;6974;53.606;9.872;2023-05-29T14:31:44;23.50;99.90
13806;DHT22;6974;53.606;9.872;2023-05-29T14:34:11;23.60;99.90
13806;DHT22;6974;53.606;9.872;2023-05-29T14:36:39;23.90;99.90
13806;DHT22;6974;53.606;9.872;2023-05-29T14:39:06;24.00;99.90
13806;DHT22;6974;53.606;9.872;2023-05-29T14:41:35;24.00;99.90
13806;DHT22;6974;53.606;9.872;2023-05-29T14:44:02;24.20;99.90
13806;DHT22;6974;53.606;9.872;2023-05-29T14:46:29;24.40;99.90
13806;DHT22;6974;53.606;9.872;2023-05-29T14:48:57;24.40;99.90
13806;DHT22;6974;53.606;9.872;2023-05-29T14:51:24;24.30;99.80
13806;DHT22;6974;53.606;9.872;2023-05-29T14:53:51;24.30;98.60
13806;DHT22;6974;53.606;9.872;2023-05-29T14:56:18;24.20;99.90
13806;DHT22;6974;53.606;9.872;2023-05-29T14:58:46;24.20;99.90
13806;DHT22;6974;53.606;9.872;2023-05-29T15:01:14;24.20;99.70
13806;DHT22;6974;53.606;9.872;2023-05-29T15:03:41;24.10;99.90
13806;DHT22;6974;53.606;9.872;2023-05-29T15:06:09;24.10;98.50
13806;DHT22;6974;53.606;9.872;2023-05-29T15:08:37;24.10;97.90
13806;DHT22;6974;53.606;9.872;2023-05-29T15:11:05;24.00;98.40
13806;DHT22;6974;53.606;9.872;2023-05-29T15:13:33;23.90;99.30
13806;DHT22;6974;53.606;9.872;2023-05-29T15:16:01;24.00;99.20
13806;DHT22;6974;53.606;9.872;2023-05-29T15:18:28;24.00;99.60
13806;DHT22;6974;53.606;9.872;2023-05-29T15:20:55;24.10;99.10
13806;DHT22;6974;53.606;9.872;2023-05-29T15:23:24;24.20;98.80
13806;DHT22;6974;53.606;9.872;2023-05-29T15:25:51;24.00;99.20
13806;DHT22;6974;53.606;9.872;2023-05-29T15:28:18;23.80;99.30
13806;DHT22;6974;53.606;9.872;2023-05-29T15:30:45;23.80;99.60
13806;DHT22;6974;53.606;9.872;2023-05-29T15:33:14;23.70;98.60
13806;DHT22;6974;53.606;9.872;2023-05-29T15:35:41;23.80;97.50
13806;DHT22;6974;53.606;9.872;2023-05-29T15:38:08;23.80;98.70
13806;DHT22;6974;53.606;9.872;2023-05-29T15:40:35;23.70;98.00
13806;DHT22;6974;53.606;9.872;2023-05-29T15:43:02;23.70;98.70
13806;DHT22;6974;53.606;9.872;2023-05-29T15:45:29;23.80;98.80
13806;DHT22;6974;53.606;9.872;2023-05-29T15:47:56;23.70;97.80
13806;DHT22;6974;53.606;9.872;2023-05-29T15:50:24;23.60;98.70
13806;DHT22;6974;53.606;9.872;2023-05-29T15:52:51;23.30;99.00